Amity, Indiana
Current Conditions -  °F | °C
As of 1:55 PM on Thursday 30 Oct 2014 (Local Time) from K1II Reporting Station
Clear Clear  
Wind Chill: 52°   Ceiling: Unl
Heat Index: 52°   Visibility: 10mi
Dew Point: 34°   Wind: 6mph
Humidity: 50%   Direction: 160°SSE
Pressure: 30.13"   Gusts: NA
Location:  39.4841°N, 86.0843°W
Report Text: K1II 301755Z AUTO 16005KT 10SM CLR 11/01 A3013 RMK AO2
Loading
Personal Weather Stations






























Interactive Weather Map New forecast layout! Learn more

10-Day Weather Forecast

Advertisements
Track Severe Weather on mobile